createdAt,value
2023-02-18T00:01:12.426Z,72.40
2023-02-18T00:03:42.179Z,72.31
2023-02-18T00:06:16.749Z,72.43
2023-02-18T00:08:47.082Z,72.46
2023-02-18T00:11:19.100Z,72.42
2023-02-18T00:13:52.521Z,72.74
2023-02-18T00:16:22.857Z,73.19
2023-02-18T00:18:52.159Z,72.58
2023-02-18T00:21:21.489Z,72.67
2023-02-18T00:23:50.574Z,72.61
2023-02-18T00:26:21.945Z,72.62
2023-02-18T00:28:53.024Z,72.66
2023-02-18T00:31:24.746Z,72.47
2023-02-18T00:33:54.595Z,72.36
2023-02-18T00:36:24.923Z,71.57
2023-02-18T00:38:55.814Z,71.17
2023-02-18T00:41:28.472Z,71.54
2023-02-18T00:43:57.646Z,70.32
2023-02-18T00:46:27.503Z,70.37
2023-02-18T00:48:57.320Z,70.72
2023-02-18T00:51:26.771Z,71.05
2023-02-18T00:53:56.297Z,70.49
2023-02-18T00:56:28.369Z,71.29
2023-02-18T00:58:57.388Z,71.99
2023-02-18T01:01:27.974Z,72.57
2023-02-18T01:03:57.492Z,73.30
2023-02-18T01:06:26.777Z,72.95
2023-02-18T01:08:55.808Z,73.38
2023-02-18T01:11:25.196Z,72.84
2023-02-18T01:13:55.984Z,74.03
2023-02-18T01:16:25.564Z,73.72
2023-02-18T01:18:54.587Z,73.84
2023-02-18T01:21:23.978Z,73.98
2023-02-18T01:23:55.028Z,73.71
2023-02-18T01:26:24.447Z,73.13
2023-02-18T01:28:54.834Z,72.71
2023-02-18T01:31:24.295Z,73.07
2023-02-18T01:33:53.533Z,72.84
2023-02-18T01:36:23.255Z,71.88
2023-02-18T01:38:53.360Z,71.85
2023-02-18T01:41:23.092Z,72.45
2023-02-18T01:44:13.375Z,71.47
2023-02-18T01:46:42.820Z,71.47
2023-02-18T01:49:14.057Z,70.62
2023-02-18T01:51:48.725Z,71.15
2023-02-18T01:54:22.641Z,70.04
2023-02-18T01:56:56.234Z,69.49
2023-02-18T01:59:31.118Z,69.27
2023-02-18T02:02:00.801Z,69.41
2023-02-18T02:04:31.930Z,68.56
2023-02-18T02:07:01.467Z,69.70
2023-02-18T02:09:32.520Z,68.85
2023-02-18T02:12:27.387Z,68.57
2023-02-18T02:15:17.543Z,68.60
2023-02-18T02:17:59.929Z,68.14
2023-02-18T02:21:07.286Z,67.79
2023-02-18T02:24:19.387Z,68.05
2023-02-18T02:27:16.774Z,67.75
2023-02-18T02:30:14.852Z,68.34
2023-02-18T02:33:29.405Z,67.88
2023-02-18T02:36:05.801Z,67.48
2023-02-18T02:38:43.304Z,66.69
2023-02-18T02:41:27.985Z,66.58
2023-02-18T02:44:09.757Z,66.45
2023-02-18T02:46:45.351Z,66.71
2023-02-18T02:49:25.908Z,67.10
2023-02-18T02:52:04.729Z,66.92
2023-02-18T02:54:33.913Z,66.95
2023-02-18T02:57:31.278Z,66.90
2023-02-18T03:00:16.943Z,66.23
2023-02-18T03:03:03.526Z,65.97
2023-02-18T03:05:44.249Z,66.73
2023-02-18T03:08:30.789Z,66.42
2023-02-18T03:11:06.771Z,66.03
2023-02-18T03:13:57.406Z,66.00
2023-02-18T03:16:43.590Z,66.21
2023-02-18T03:19:19.999Z,66.19
2023-02-18T03:21:54.724Z,66.10
2023-02-18T03:24:29.603Z,65.92
2023-02-18T03:27:05.496Z,65.54
2023-02-18T03:29:36.453Z,65.79
2023-02-18T03:32:09.990Z,66.12
2023-02-18T03:34:42.887Z,65.67
2023-02-18T03:37:14.200Z,65.61
2023-02-18T03:39:47.394Z,65.65
2023-02-18T03:42:18.783Z,65.88
2023-02-18T03:44:48.108Z,66.04
2023-02-18T03:47:18.539Z,66.85
2023-02-18T03:49:47.837Z,65.99
2023-02-18T03:52:17.573Z,66.00
2023-02-18T03:54:47.027Z,66.29
2023-02-18T03:57:16.028Z,66.47
2023-02-18T03:59:45.540Z,66.02
2023-02-18T04:02:14.570Z,66.11
2023-02-18T04:04:45.254Z,66.31
2023-02-18T04:07:14.369Z,65.49
2023-02-18T04:09:43.668Z,65.82
2023-02-18T04:12:12.700Z,65.41
2023-02-18T04:14:41.963Z,65.16
2023-02-18T04:17:11.164Z,65.56
2023-02-18T04:19:40.408Z,65.08
2023-02-18T04:22:10.900Z,65.43
2023-02-18T04:24:40.253Z,65.47
2023-02-18T04:27:09.212Z,64.79
2023-02-18T04:29:38.715Z,64.72
2023-02-18T04:32:07.951Z,64.65
2023-02-18T04:34:37.608Z,64.55
2023-02-18T04:37:06.595Z,64.94
2023-02-18T04:39:37.228Z,64.95
2023-02-18T04:42:10.336Z,64.40
2023-02-18T04:44:40.166Z,64.52
2023-02-18T04:47:09.908Z,64.52
2023-02-18T04:49:39.466Z,64.87
2023-02-18T04:52:08.517Z,64.83
2023-02-18T04:54:39.193Z,64.95
2023-02-18T04:57:08.272Z,65.05
2023-02-18T04:59:37.603Z,65.11
2023-02-18T05:02:06.843Z,65.23
2023-02-18T05:04:36.105Z,64.96
2023-02-18T05:07:05.152Z,65.18
2023-02-18T05:09:34.688Z,64.86
2023-02-18T05:12:05.337Z,64.64
2023-02-18T05:14:34.784Z,65.60
2023-02-18T05:17:04.330Z,65.17
2023-02-18T05:19:33.812Z,65.75
2023-02-18T05:22:02.897Z,65.96
2023-02-18T05:24:32.346Z,64.72
2023-02-18T05:27:01.330Z,64.92
2023-02-18T05:29:32.137Z,65.33
2023-02-18T05:32:01.177Z,65.52
2023-02-18T05:34:30.583Z,66.14
2023-02-18T05:36:59.737Z,66.22
2023-02-18T05:39:29.031Z,65.52
2023-02-18T05:41:58.081Z,66.16
2023-02-18T05:44:33.651Z,66.24
2023-02-18T05:47:06.111Z,66.73
2023-02-18T05:49:36.432Z,66.55
2023-02-18T05:52:06.081Z,66.49
2023-02-18T05:54:36.216Z,66.08
2023-02-18T05:57:05.355Z,67.09
2023-02-18T05:59:34.668Z,66.28
2023-02-18T06:02:05.158Z,66.79
2023-02-18T06:04:34.594Z,67.15
2023-02-18T06:07:03.621Z,67.12
2023-02-18T06:09:33.071Z,66.71
2023-02-18T06:12:02.148Z,66.82
2023-02-18T06:14:31.428Z,67.18
2023-02-18T06:17:00.539Z,66.73
2023-02-18T06:19:31.246Z,66.39
2023-02-18T06:22:00.280Z,67.11
2023-02-18T06:24:29.568Z,66.86
2023-02-18T06:26:58.662Z,66.78
2023-02-18T06:29:29.856Z,67.32
2023-02-18T06:31:59.042Z,66.90
2023-02-18T06:34:30.591Z,67.54
2023-02-18T06:37:01.311Z,66.66
2023-02-18T06:39:31.272Z,66.48
2023-02-18T06:42:00.482Z,67.43
2023-02-18T06:44:29.835Z,67.26
2023-02-18T06:46:58.899Z,66.95
2023-02-18T06:49:28.221Z,67.14
2023-02-18T06:51:58.581Z,67.33
2023-02-18T06:54:28.055Z,66.86
2023-02-18T06:56:57.030Z,67.33
2023-02-18T06:59:26.368Z,66.64
2023-02-18T07:01:55.402Z,67.14
2023-02-18T07:04:24.922Z,67.00
2023-02-18T07:06:53.922Z,67.01
2023-02-18T07:09:24.660Z,66.54
2023-02-18T07:11:53.678Z,67.04
2023-02-18T07:14:24.430Z,67.41
2023-02-18T07:16:53.439Z,67.13
2023-02-18T07:19:22.732Z,66.58
2023-02-18T07:21:51.943Z,66.91
2023-02-18T07:24:21.246Z,66.58
2023-02-18T07:26:51.636Z,65.92
2023-02-18T07:29:21.006Z,66.86
2023-02-18T07:31:50.060Z,66.16
2023-02-18T07:34:19.443Z,66.35
2023-02-18T07:36:48.832Z,66.52
2023-02-18T07:39:20.783Z,66.29
2023-02-18T07:41:51.312Z,65.45
2023-02-18T07:44:20.880Z,65.52
2023-02-18T07:46:49.927Z,65.67
2023-02-18T07:49:19.243Z,64.77
2023-02-18T07:51:49.172Z,64.49
2023-02-18T07:54:18.375Z,64.68
2023-02-18T07:56:47.822Z,65.37
2023-02-18T07:59:18.743Z,65.09
2023-02-18T08:01:47.915Z,65.11
2023-02-18T08:04:17.335Z,64.32
2023-02-18T08:06:48.752Z,64.43
2023-02-18T08:09:19.425Z,64.44
2023-02-18T08:11:48.548Z,64.36
2023-02-18T08:14:19.254Z,64.91
2023-02-18T08:16:48.465Z,64.39
2023-02-18T08:19:18.006Z,64.25
2023-02-18T08:21:47.074Z,64.49
2023-02-18T08:24:16.454Z,63.44
2023-02-18T08:26:59.837Z,63.72
2023-02-18T08:29:31.545Z,64.37
2023-02-18T08:32:00.651Z,63.55
2023-02-18T08:34:30.120Z,64.53
2023-02-18T08:36:59.200Z,63.79
2023-02-18T08:39:28.489Z,63.70
2023-02-18T08:41:58.871Z,63.95
2023-02-18T08:44:30.330Z,63.62
2023-02-18T08:46:59.450Z,63.06
2023-02-18T08:49:28.818Z,63.48
2023-02-18T08:51:58.593Z,63.49
2023-02-18T08:54:27.962Z,64.17
2023-02-18T08:56:57.795Z,62.83
2023-02-18T08:59:27.580Z,63.63
2023-02-18T09:01:57.999Z,63.02
2023-02-18T09:04:27.518Z,63.20
2023-02-18T09:06:56.524Z,63.18
2023-02-18T09:09:26.120Z,63.00
2023-02-18T09:11:55.183Z,63.46
2023-02-18T09:14:24.470Z,63.67
2023-02-18T09:16:53.556Z,62.95
2023-02-18T09:19:24.555Z,63.28
2023-02-18T09:21:53.804Z,62.81
2023-02-18T09:24:24.719Z,63.47
2023-02-18T09:26:54.286Z,63.18
2023-02-18T09:29:23.708Z,62.98
2023-02-18T09:31:52.812Z,63.42
2023-02-18T09:34:23.607Z,63.13
2023-02-18T09:36:52.671Z,62.82
2023-02-18T09:39:22.168Z,62.76
2023-02-18T09:41:53.973Z,62.13
2023-02-18T09:44:26.918Z,62.07
2023-02-18T09:47:00.285Z,62.09
2023-02-18T09:49:35.220Z,62.19
2023-02-18T09:52:11.970Z,62.16
2023-02-18T09:54:41.476Z,63.01
2023-02-18T09:57:23.232Z,62.57
2023-02-18T10:00:01.229Z,61.79
2023-02-18T10:02:42.973Z,62.16
2023-02-18T10:05:16.935Z,61.72
2023-02-18T10:07:47.780Z,61.26
2023-02-18T10:10:22.357Z,60.86
2023-02-18T10:12:52.721Z,60.37
2023-02-18T10:15:26.564Z,60.03
2023-02-18T10:17:57.269Z,61.09
2023-02-18T10:20:31.173Z,60.71
2023-02-18T10:23:06.284Z,60.84
2023-02-18T10:25:42.191Z,60.41
2023-02-18T10:28:12.855Z,61.09
2023-02-18T10:30:44.918Z,60.92
2023-02-18T10:33:28.524Z,59.88
2023-02-18T10:36:08.832Z,60.39
2023-02-18T10:38:47.453Z,60.90
2023-02-18T10:41:27.097Z,60.97
2023-02-18T10:44:04.854Z,60.66
2023-02-18T10:46:45.661Z,61.07
2023-02-18T10:49:42.109Z,61.20
2023-02-18T10:52:17.851Z,61.27
2023-02-18T10:54:53.628Z,61.72
2023-02-18T10:57:25.268Z,61.23
2023-02-18T11:00:10.643Z,61.48
2023-02-18T11:02:40.666Z,60.62
2023-02-18T11:05:21.730Z,60.36
2023-02-18T11:07:55.453Z,60.83
2023-02-18T11:10:27.303Z,60.56
2023-02-18T11:13:02.032Z,60.30
2023-02-18T11:15:31.585Z,59.88
2023-02-18T11:18:14.278Z,60.74
2023-02-18T11:21:27.627Z,59.99
2023-02-18T11:28:04.206Z,59.54
2023-02-18T11:30:36.940Z,59.28
2023-02-18T11:33:10.822Z,59.03
2023-02-18T11:35:39.887Z,59.75
2023-02-18T11:38:28.141Z,59.53
2023-02-18T11:41:04.093Z,60.33
2023-02-18T11:43:35.719Z,60.40
2023-02-18T11:49:43.240Z,59.59
2023-02-18T11:52:19.672Z,59.80
2023-02-18T11:55:02.879Z,60.04
2023-02-18T11:57:35.063Z,60.54
2023-02-18T12:00:16.261Z,60.05
2023-02-18T12:02:45.521Z,60.44
2023-02-18T12:05:21.066Z,60.83
2023-02-18T12:07:52.621Z,60.86
2023-02-18T12:10:28.708Z,60.07
2023-02-18T12:13:04.748Z,60.66
2023-02-18T12:15:50.554Z,60.74
2023-02-18T12:18:36.854Z,60.73
2023-02-18T12:21:23.839Z,60.67
2023-02-18T12:24:04.282Z,60.70
2023-02-18T12:26:46.316Z,60.96
2023-02-18T12:29:38.981Z,60.41
2023-02-18T12:32:19.609Z,60.48
2023-02-18T12:35:14.269Z,60.74
2023-02-18T12:38:00.797Z,60.70
2023-02-18T12:40:48.724Z,61.17
2023-02-18T12:43:30.605Z,61.50
2023-02-18T12:46:22.762Z,61.42
2023-02-18T12:49:08.894Z,61.32
2023-02-18T12:51:53.985Z,61.28
2023-02-18T12:54:47.987Z,61.26
2023-02-18T12:58:03.645Z,61.48
2023-02-18T13:00:47.238Z,61.97
2023-02-18T13:03:55.608Z,62.15
2023-02-18T13:06:48.976Z,61.55
2023-02-18T13:09:27.698Z,62.24
2023-02-18T13:12:05.596Z,62.53
2023-02-18T13:14:41.058Z,62.65
2023-02-18T13:17:12.546Z,63.03
2023-02-18T13:19:51.222Z,62.70
2023-02-18T13:22:24.080Z,62.96
2023-02-18T13:24:56.444Z,62.78
2023-02-18T13:27:32.662Z,62.67
2023-02-18T13:30:24.702Z,62.60
2023-02-18T13:33:08.288Z,62.58
2023-02-18T13:35:44.284Z,62.54
2023-02-18T13:38:49.890Z,62.81
2023-02-18T13:41:19.958Z,63.15
2023-02-18T13:43:49.346Z,63.53
2023-02-18T13:46:20.497Z,63.51
2023-02-18T13:48:52.862Z,64.04
2023-02-18T13:51:33.595Z,63.71
2023-02-18T13:54:07.957Z,64.97
2023-02-18T13:56:41.705Z,64.74
2023-02-18T13:59:18.986Z,63.95
2023-02-18T14:01:51.078Z,64.45
2023-02-18T14:04:52.017Z,64.73
2023-02-18T14:07:47.333Z,64.90
2023-02-18T14:10:29.622Z,65.09
2023-02-18T14:13:24.052Z,64.50
2023-02-18T14:16:01.508Z,64.19
2023-02-18T14:19:02.353Z,64.53
2023-02-18T14:22:13.166Z,64.44
2023-02-18T14:24:50.229Z,64.95
2023-02-18T14:27:20.062Z,65.16
2023-02-18T14:29:52.904Z,65.78
2023-02-18T14:32:22.962Z,65.13
2023-02-18T14:35:23.534Z,66.01
2023-02-18T14:38:09.407Z,66.16
2023-02-18T14:40:56.658Z,66.23
2023-02-18T14:43:55.169Z,66.01
2023-02-18T14:46:36.966Z,65.99
2023-02-18T14:49:36.195Z,66.07
2023-02-18T14:52:07.801Z,65.88
2023-02-18T14:54:38.416Z,66.77
2023-02-18T14:57:15.769Z,66.24
2023-02-18T14:59:47.708Z,66.56
2023-02-18T15:02:21.840Z,66.31
2023-02-18T15:04:51.688Z,66.94
2023-02-18T15:07:22.737Z,66.50
2023-02-18T15:09:55.842Z,66.27
2023-02-18T15:12:27.448Z,66.65
2023-02-18T15:15:03.802Z,66.94
2023-02-18T15:17:33.227Z,66.80
2023-02-18T15:20:08.059Z,66.75
2023-02-18T15:22:37.813Z,67.30
2023-02-18T15:25:08.038Z,67.21
2023-02-18T15:27:44.351Z,67.10
2023-02-18T15:30:22.975Z,67.42
2023-02-18T15:32:53.966Z,67.45
2023-02-18T15:35:29.285Z,67.86
2023-02-18T15:38:00.668Z,67.52
2023-02-18T15:40:35.029Z,68.59
2023-02-18T15:43:07.644Z,67.47
2023-02-18T15:45:41.444Z,68.01
2023-02-18T15:48:34.043Z,68.57
2023-02-18T15:51:16.798Z,68.62
2023-02-18T15:53:50.243Z,69.33
2023-02-18T15:56:25.184Z,69.03
2023-02-18T15:59:09.814Z,70.10
2023-02-18T16:01:39.425Z,69.35
2023-02-18T16:04:09.064Z,68.97
2023-02-18T16:06:39.777Z,69.28
2023-02-18T16:09:14.910Z,69.74
2023-02-18T16:11:48.344Z,69.58
2023-02-18T16:14:32.824Z,70.15
2023-02-18T16:17:10.287Z,69.83
2023-02-18T16:20:02.876Z,69.66
2023-02-18T16:22:44.209Z,69.13
2023-02-18T16:25:19.265Z,69.45
2023-02-18T16:27:52.381Z,69.71
2023-02-18T16:30:24.652Z,69.14
2023-02-18T16:32:54.932Z,70.04
2023-02-18T16:35:25.329Z,69.73
2023-02-18T16:37:57.768Z,70.04
2023-02-18T16:40:30.410Z,70.58
2023-02-18T16:43:02.578Z,70.11
2023-02-18T16:45:40.265Z,69.90
2023-02-18T16:48:17.031Z,70.24
2023-02-18T16:50:46.965Z,70.64
2023-02-18T16:53:16.382Z,70.83
2023-02-18T16:55:45.540Z,70.86
2023-02-18T16:58:14.967Z,70.33
2023-02-18T17:00:47.007Z,71.45
2023-02-18T17:03:17.401Z,71.43
2023-02-18T17:05:46.730Z,71.15
2023-02-18T17:08:23.143Z,71.04
2023-02-18T17:10:54.276Z,71.19
2023-02-18T17:13:25.707Z,71.26
2023-02-18T17:15:58.361Z,71.70
2023-02-18T17:18:29.148Z,71.63
2023-02-18T17:20:59.137Z,70.88
2023-02-18T17:23:28.600Z,71.12
2023-02-18T17:25:57.612Z,70.20
2023-02-18T17:28:27.113Z,70.67
2023-02-18T17:31:00.345Z,70.50
2023-02-18T17:33:30.795Z,71.24
2023-02-18T17:35:59.829Z,70.79
2023-02-18T17:38:29.658Z,71.74
2023-02-18T17:40:59.366Z,71.26
2023-02-18T17:43:28.824Z,71.01
2023-02-18T17:46:00.899Z,70.53
2023-02-18T17:48:30.819Z,70.66
2023-02-18T17:51:00.235Z,71.33
2023-02-18T17:53:29.618Z,71.38
2023-02-18T17:55:58.655Z,71.35
2023-02-18T17:58:28.243Z,71.35
2023-02-18T18:00:59.662Z,70.93
2023-02-18T18:03:29.164Z,71.09
2023-02-18T18:05:58.751Z,70.89
2023-02-18T18:08:28.276Z,70.96
2023-02-18T18:11:00.947Z,71.67
2023-02-18T18:13:32.296Z,71.37
2023-02-18T18:16:02.963Z,71.49
2023-02-18T18:18:32.475Z,72.14
2023-02-18T18:21:04.473Z,71.35
2023-02-18T18:23:34.169Z,71.55
2023-02-18T18:26:03.262Z,71.92
2023-02-18T18:28:33.422Z,71.64
2023-02-18T18:31:04.214Z,71.87
2023-02-18T18:33:35.658Z,72.05
2023-02-18T18:36:05.039Z,72.50
2023-02-18T18:38:34.426Z,71.94
2023-02-18T18:41:03.420Z,71.72
2023-02-18T18:43:35.583Z,72.35
2023-02-18T18:46:06.574Z,72.21
2023-02-18T18:48:36.018Z,71.67
2023-02-18T18:51:05.846Z,71.29
2023-02-18T18:53:36.885Z,71.43
2023-02-18T18:56:09.612Z,72.19
2023-02-18T18:58:39.051Z,72.12
2023-02-18T19:01:17.023Z,71.58
2023-02-18T19:03:47.348Z,70.91
2023-02-18T19:06:18.569Z,71.31
2023-02-18T19:08:48.121Z,71.34
2023-02-18T19:11:17.647Z,71.71
2023-02-18T19:13:46.896Z,71.11
2023-02-18T19:16:22.352Z,71.62
2023-02-18T19:18:52.028Z,72.00
2023-02-18T19:21:21.232Z,71.72
2023-02-18T19:23:50.652Z,71.95
2023-02-18T19:26:20.649Z,71.51
2023-02-18T19:28:50.011Z,71.52
2023-02-18T19:31:24.168Z,71.71
2023-02-18T19:33:54.382Z,71.45
2023-02-18T19:36:23.986Z,72.05
2023-02-18T19:38:53.551Z,72.34
2023-02-18T19:41:22.596Z,71.71
2023-02-18T19:43:52.713Z,72.34
2023-02-18T19:46:23.229Z,72.01
2023-02-18T19:48:54.058Z,71.74
2023-02-18T19:51:24.810Z,71.93
2023-02-18T19:53:54.572Z,71.36
2023-02-18T19:56:24.421Z,72.10
2023-02-18T19:58:57.120Z,72.06
2023-02-18T20:01:27.559Z,71.54
2023-02-18T20:03:57.183Z,71.97
2023-02-18T20:06:27.408Z,72.40
2023-02-18T20:08:58.001Z,73.38
2023-02-18T20:11:27.160Z,73.14
2023-02-18T20:13:56.595Z,72.64
2023-02-18T20:16:27.224Z,72.57
2023-02-18T20:18:56.782Z,72.45
2023-02-18T20:21:26.776Z,72.25
2023-02-18T20:23:56.869Z,72.68
2023-02-18T20:26:26.327Z,73.39
2023-02-18T20:28:56.570Z,72.57
2023-02-18T20:31:27.290Z,72.93
2023-02-18T20:33:58.211Z,73.08
2023-02-18T20:36:28.143Z,72.90
2023-02-18T20:39:04.950Z,72.46
2023-02-18T20:41:43.539Z,72.55
2023-02-18T20:44:13.002Z,72.65
2023-02-18T20:46:44.519Z,72.43
2023-02-18T20:49:16.900Z,73.05
2023-02-18T20:51:46.101Z,72.51
2023-02-18T20:54:19.663Z,73.13
2023-02-18T20:56:50.749Z,73.73
2023-02-18T20:59:22.142Z,73.11
2023-02-18T21:01:52.817Z,73.91
2023-02-18T21:04:22.992Z,73.86
2023-02-18T21:06:52.112Z,74.18
2023-02-18T21:09:21.520Z,73.06
2023-02-18T21:11:50.791Z,72.88
2023-02-18T21:14:20.186Z,72.99
2023-02-18T21:16:51.214Z,73.14
2023-02-18T21:19:23.004Z,73.24
2023-02-18T21:21:52.067Z,72.92
2023-02-18T21:24:21.384Z,73.13
2023-02-18T21:26:50.816Z,73.12
2023-02-18T21:29:20.123Z,73.16
2023-02-18T21:31:49.351Z,73.63
2023-02-18T21:34:21.164Z,73.35
2023-02-18T21:36:50.524Z,73.44
2023-02-18T21:39:19.878Z,73.71
2023-02-18T21:41:49.089Z,73.18
2023-02-18T21:44:18.504Z,73.79
2023-02-18T21:46:47.590Z,73.49
2023-02-18T21:49:18.207Z,73.00
2023-02-18T21:52:00.437Z,73.51
2023-02-18T21:54:31.433Z,73.84
2023-02-18T21:57:03.832Z,73.63
2023-02-18T21:59:35.156Z,73.77
2023-02-18T22:02:05.803Z,74.24
2023-02-18T22:04:37.465Z,74.09
2023-02-18T22:07:08.889Z,74.55
2023-02-18T22:09:39.384Z,74.42
2023-02-18T22:12:09.158Z,74.88
2023-02-18T22:14:38.580Z,74.42
2023-02-18T22:17:07.718Z,74.43
2023-02-18T22:19:37.383Z,74.33
2023-02-18T22:22:08.033Z,74.75
2023-02-18T22:24:37.487Z,75.00
2023-02-18T22:27:06.734Z,74.93
2023-02-18T22:29:36.161Z,74.66
2023-02-18T22:32:05.908Z,74.61
2023-02-18T22:34:35.269Z,74.78
2023-02-18T22:37:04.343Z,74.67
2023-02-18T22:39:35.015Z,74.68
2023-02-18T22:42:04.274Z,74.77
2023-02-18T22:44:33.615Z,74.84
2023-02-18T22:47:02.663Z,74.53
2023-02-18T22:49:32.622Z,75.01
2023-02-18T22:52:01.681Z,74.62
2023-02-18T22:54:31.031Z,74.52
2023-02-18T22:57:01.509Z,74.40
2023-02-18T22:59:30.881Z,74.84
2023-02-18T23:01:59.856Z,74.66
2023-02-18T23:04:29.300Z,74.61
2023-02-18T23:06:58.326Z,74.49
2023-02-18T23:09:27.789Z,74.63
2023-02-18T23:11:58.564Z,74.51
2023-02-18T23:14:30.611Z,74.58
2023-02-18T23:17:18.028Z,74.95
2023-02-18T23:19:49.126Z,74.78
2023-02-18T23:22:20.559Z,74.71
2023-02-18T23:24:50.210Z,74.85
2023-02-18T23:27:19.368Z,75.00
2023-02-18T23:29:50.551Z,74.88
2023-02-18T23:32:19.791Z,75.09
2023-02-18T23:34:50.286Z,74.90
2023-02-18T23:37:39.180Z,74.83
2023-02-18T23:40:09.667Z,74.75
2023-02-18T23:42:38.729Z,74.88
2023-02-18T23:45:10.222Z,75.13
2023-02-18T23:47:39.510Z,75.29
2023-02-18T23:50:09.210Z,75.37
2023-02-18T23:52:38.490Z,75.49
2023-02-18T23:55:08.298Z,75.46
2023-02-18T23:57:37.442Z,75.94
